sensor_id;sensor_type;location;lat;lon;timestamp;P1;durP1;ratioP1;P2;durP2;ratioP2
17193;SDS011;8713;48.388;10.928;2023-02-01T07:06:31;2.83;;;1.88;;
17193;SDS011;8713;48.388;10.928;2023-02-01T07:08:00;3.95;;;2.10;;
17193;SDS011;8713;48.388;10.928;2023-02-01T07:09:30;2.55;;;1.40;;
17193;SDS011;8713;48.388;10.928;2023-02-01T07:11:01;3.33;;;1.98;;
17193;SDS011;8713;48.388;10.928;2023-02-01T07:12:38;3.75;;;2.00;;
17193;SDS011;8713;48.388;10.928;2023-02-01T07:14:08;1.73;;;0.93;;
17193;SDS011;8713;48.388;10.928;2023-02-01T07:15:39;3.22;;;2.03;;
17193;SDS011;8713;48.388;10.928;2023-02-01T07:17:09;4.18;;;2.50;;
17193;SDS011;8713;48.388;10.928;2023-02-01T07:18:38;4.28;;;2.10;;
17193;SDS011;8713;48.388;10.928;2023-02-01T07:20:08;1.52;;;1.00;;
17193;SDS011;8713;48.388;10.928;2023-02-01T07:21:39;5.72;;;2.15;;
17193;SDS011;8713;48.388;10.928;2023-02-01T07:23:09;3.22;;;1.35;;
17193;SDS011;8713;48.388;10.928;2023-02-01T07:24:39;2.40;;;1.70;;
17193;SDS011;8713;48.388;10.928;2023-02-01T07:26:09;3.92;;;2.47;;
17193;SDS011;8713;48.388;10.928;2023-02-01T07:27:42;3.17;;;1.65;;
17193;SDS011;8713;48.388;10.928;2023-02-01T07:29:11;2.30;;;1.45;;
17193;SDS011;8713;48.388;10.928;2023-02-01T07:30:41;2.58;;;1.73;;
17193;SDS011;8713;48.388;10.928;2023-02-01T07:32:10;2.17;;;1.33;;
17193;SDS011;8713;48.388;10.928;2023-02-01T07:33:40;2.97;;;1.92;;
17193;SDS011;8713;48.388;10.928;2023-02-01T07:35:10;2.88;;;1.50;;
17193;SDS011;8713;48.388;10.928;2023-02-01T07:36:39;4.43;;;1.27;;
17193;SDS011;8713;48.388;10.928;2023-02-01T07:38:09;2.22;;;1.50;;
17193;SDS011;8713;48.388;10.928;2023-02-01T07:39:38;3.05;;;1.83;;
17193;SDS011;8713;48.388;10.928;2023-02-01T07:41:08;3.63;;;2.20;;
17193;SDS011;8713;48.388;10.928;2023-02-01T07:42:38;3.60;;;2.08;;
17193;SDS011;8713;48.388;10.928;2023-02-01T07:44:07;2.60;;;1.67;;
17193;SDS011;8713;48.388;10.928;2023-02-01T07:45:37;4.63;;;1.65;;
17193;SDS011;8713;48.388;10.928;2023-02-01T07:47:06;3.88;;;2.20;;
17193;SDS011;8713;48.388;10.928;2023-02-01T07:48:36;3.40;;;1.65;;
17193;SDS011;8713;48.388;10.928;2023-02-01T07:50:06;3.50;;;1.85;;
17193;SDS011;8713;48.388;10.928;2023-02-01T07:51:36;3.78;;;1.88;;
17193;SDS011;8713;48.388;10.928;2023-02-01T07:53:05;3.72;;;1.50;;
17193;SDS011;8713;48.388;10.928;2023-02-01T07:54:35;1.30;;;1.00;;
17193;SDS011;8713;48.388;10.928;2023-02-01T07:56:09;1.30;;;1.02;;
17193;SDS011;8713;48.388;10.928;2023-02-01T07:57:45;2.10;;;1.38;;
17193;SDS011;8713;48.388;10.928;2023-02-01T07:59:14;1.13;;;0.82;;
17193;SDS011;8713;48.388;10.928;2023-02-01T08:00:45;4.28;;;1.70;;
17193;SDS011;8713;48.388;10.928;2023-02-01T08:02:33;2.97;;;1.67;;
17193;SDS011;8713;48.388;10.928;2023-02-01T08:04:03;2.53;;;1.55;;
17193;SDS011;8713;48.388;10.928;2023-02-01T08:05:33;3.92;;;1.98;;
17193;SDS011;8713;48.388;10.928;2023-02-01T08:07:02;3.53;;;1.98;;
17193;SDS011;8713;48.388;10.928;2023-02-01T08:08:32;4.55;;;2.03;;
17193;SDS011;8713;48.388;10.928;2023-02-01T08:10:02;3.55;;;2.08;;
17193;SDS011;8713;48.388;10.928;2023-02-01T08:11:34;0.57;;;0.52;;
17193;SDS011;8713;48.388;10.928;2023-02-01T08:13:06;2.70;;;1.58;;
17193;SDS011;8713;48.388;10.928;2023-02-01T08:14:36;2.78;;;1.58;;
17193;SDS011;8713;48.388;10.928;2023-02-01T08:16:06;2.13;;;1.10;;
17193;SDS011;8713;48.388;10.928;2023-02-01T08:17:37;2.30;;;1.08;;
17193;SDS011;8713;48.388;10.928;2023-02-01T08:19:07;2.67;;;1.02;;
17193;SDS011;8713;48.388;10.928;2023-02-01T08:20:37;3.55;;;1.90;;
17193;SDS011;8713;48.388;10.928;2023-02-01T08:22:10;3.17;;;1.45;;
17193;SDS011;8713;48.388;10.928;2023-02-01T08:23:40;1.98;;;1.15;;
17193;SDS011;8713;48.388;10.928;2023-02-01T08:25:10;1.60;;;0.93;;
17193;SDS011;8713;48.388;10.928;2023-02-01T08:26:40;1.80;;;1.25;;
17193;SDS011;8713;48.388;10.928;2023-02-01T08:28:10;2.20;;;1.55;;
17193;SDS011;8713;48.388;10.928;2023-02-01T08:29:40;5.43;;;2.20;;
17193;SDS011;8713;48.388;10.928;2023-02-01T08:31:11;4.55;;;1.45;;
17193;SDS011;8713;48.388;10.928;2023-02-01T08:32:45;2.70;;;1.45;;
17193;SDS011;8713;48.388;10.928;2023-02-01T08:34:15;2.25;;;1.35;;
17193;SDS011;8713;48.388;10.928;2023-02-01T08:35:45;4.20;;;1.73;;
17193;SDS011;8713;48.388;10.928;2023-02-01T08:37:14;1.58;;;1.13;;
17193;SDS011;8713;48.388;10.928;2023-02-01T08:38:44;2.03;;;1.35;;
17193;SDS011;8713;48.388;10.928;2023-02-01T08:40:14;2.92;;;1.48;;
17193;SDS011;8713;48.388;10.928;2023-02-01T08:41:44;0.55;;;0.55;;
17193;SDS011;8713;48.388;10.928;2023-02-01T08:43:34;3.15;;;1.75;;
17193;SDS011;8713;48.388;10.928;2023-02-01T08:45:04;2.30;;;1.15;;
17193;SDS011;8713;48.388;10.928;2023-02-01T08:46:34;3.83;;;1.80;;
17193;SDS011;8713;48.388;10.928;2023-02-01T08:48:03;3.50;;;1.73;;
17193;SDS011;8713;48.388;10.928;2023-02-01T08:49:33;3.25;;;1.85;;
17193;SDS011;8713;48.388;10.928;2023-02-01T08:51:03;2.28;;;0.98;;
17193;SDS011;8713;48.388;10.928;2023-02-01T08:52:36;2.47;;;1.65;;
17193;SDS011;8713;48.388;10.928;2023-02-01T08:54:05;2.50;;;1.27;;
17193;SDS011;8713;48.388;10.928;2023-02-01T08:55:35;2.63;;;2.00;;
17193;SDS011;8713;48.388;10.928;2023-02-01T08:57:04;3.10;;;1.35;;
17193;SDS011;8713;48.388;10.928;2023-02-01T08:58:34;3.72;;;1.73;;
17193;SDS011;8713;48.388;10.928;2023-02-01T09:00:04;1.83;;;1.13;;
17193;SDS011;8713;48.388;10.928;2023-02-01T09:01:37;2.70;;;1.80;;
17193;SDS011;8713;48.388;10.928;2023-02-01T09:03:08;3.42;;;1.60;;
17193;SDS011;8713;48.388;10.928;2023-02-01T09:04:40;2.20;;;1.55;;
17193;SDS011;8713;48.388;10.928;2023-02-01T09:06:10;4.63;;;1.98;;
17193;SDS011;8713;48.388;10.928;2023-02-01T09:07:42;2.92;;;1.75;;
17193;SDS011;8713;48.388;10.928;2023-02-01T09:09:12;3.45;;;1.30;;
17193;SDS011;8713;48.388;10.928;2023-02-01T09:10:41;3.03;;;1.88;;
17193;SDS011;8713;48.388;10.928;2023-02-01T09:12:11;2.10;;;1.38;;
17193;SDS011;8713;48.388;10.928;2023-02-01T09:13:41;3.30;;;1.80;;
17193;SDS011;8713;48.388;10.928;2023-02-01T09:15:12;2.30;;;1.55;;
17193;SDS011;8713;48.388;10.928;2023-02-01T09:16:41;4.32;;;1.77;;
17193;SDS011;8713;48.388;10.928;2023-02-01T09:18:11;1.30;;;0.73;;
17193;SDS011;8713;48.388;10.928;2023-02-01T09:19:40;2.05;;;1.02;;
17193;SDS011;8713;48.388;10.928;2023-02-01T09:21:09;1.05;;;0.85;;
17193;SDS011;8713;48.388;10.928;2023-02-01T09:22:39;3.22;;;1.60;;
17193;SDS011;8713;48.388;10.928;2023-02-01T09:24:12;7.90;;;1.88;;
17193;SDS011;8713;48.388;10.928;2023-02-01T09:25:42;3.05;;;1.00;;
17193;SDS011;8713;48.388;10.928;2023-02-01T09:27:11;3.75;;;1.55;;
17193;SDS011;8713;48.388;10.928;2023-02-01T09:28:41;1.35;;;0.90;;
17193;SDS011;8713;48.388;10.928;2023-02-01T09:30:11;0.60;;;0.43;;
17193;SDS011;8713;48.388;10.928;2023-02-01T09:31:41;2.42;;;1.33;;
17193;SDS011;8713;48.388;10.928;2023-02-01T09:33:10;1.00;;;0.50;;
17193;SDS011;8713;48.388;10.928;2023-02-01T09:34:40;0.60;;;0.40;;
17193;SDS011;8713;48.388;10.928;2023-02-01T09:36:09;0.40;;;0.30;;
17193;SDS011;8713;48.388;10.928;2023-02-01T09:37:39;3.38;;;1.25;;
17193;SDS011;8713;48.388;10.928;2023-02-01T09:39:08;2.67;;;1.58;;
17193;SDS011;8713;48.388;10.928;2023-02-01T09:40:39;1.33;;;0.98;;
17193;SDS011;8713;48.388;10.928;2023-02-01T09:46:23;2.13;;;1.02;;
17193;SDS011;8713;48.388;10.928;2023-02-01T09:47:58;1.83;;;1.00;;
17193;SDS011;8713;48.388;10.928;2023-02-01T09:49:33;3.60;;;1.63;;
17193;SDS011;8713;48.388;10.928;2023-02-01T09:51:04;2.95;;;1.65;;
17193;SDS011;8713;48.388;10.928;2023-02-01T09:52:42;2.92;;;1.60;;
17193;SDS011;8713;48.388;10.928;2023-02-01T09:54:18;1.92;;;1.15;;
17193;SDS011;8713;48.388;10.928;2023-02-01T09:55:51;1.52;;;0.80;;
17193;SDS011;8713;48.388;10.928;2023-02-01T10:01:18;3.10;;;1.60;;
17193;SDS011;8713;48.388;10.928;2023-02-01T10:02:51;2.15;;;1.50;;
17193;SDS011;8713;48.388;10.928;2023-02-01T10:04:23;0.55;;;0.32;;
17193;SDS011;8713;48.388;10.928;2023-02-01T10:08:11;4.72;;;1.48;;
17193;SDS011;8713;48.388;10.928;2023-02-01T10:17:04;2.63;;;1.50;;
17193;SDS011;8713;48.388;10.928;2023-02-01T10:19:04;1.58;;;0.60;;
17193;SDS011;8713;48.388;10.928;2023-02-01T10:24:47;4.85;;;1.65;;
17193;SDS011;8713;48.388;10.928;2023-02-01T10:26:28;1.48;;;0.93;;
17193;SDS011;8713;48.388;10.928;2023-02-01T10:28:02;2.05;;;0.95;;
17193;SDS011;8713;48.388;10.928;2023-02-01T10:29:34;3.67;;;1.43;;
17193;SDS011;8713;48.388;10.928;2023-02-01T10:31:08;3.08;;;1.52;;
17193;SDS011;8713;48.388;10.928;2023-02-01T10:32:38;2.47;;;1.48;;
17193;SDS011;8713;48.388;10.928;2023-02-01T10:34:19;1.80;;;0.90;;
17193;SDS011;8713;48.388;10.928;2023-02-01T10:35:58;1.70;;;1.08;;
17193;SDS011;8713;48.388;10.928;2023-02-01T10:37:34;2.20;;;1.60;;
17193;SDS011;8713;48.388;10.928;2023-02-01T10:39:04;2.67;;;1.05;;
17193;SDS011;8713;48.388;10.928;2023-02-01T10:40:36;2.00;;;1.17;;
17193;SDS011;8713;48.388;10.928;2023-02-01T10:42:07;3.40;;;1.48;;
17193;SDS011;8713;48.388;10.928;2023-02-01T10:43:37;2.10;;;1.48;;
17193;SDS011;8713;48.388;10.928;2023-02-01T10:45:13;2.20;;;1.60;;
17193;SDS011;8713;48.388;10.928;2023-02-01T10:46:49;2.72;;;1.40;;
17193;SDS011;8713;48.388;10.928;2023-02-01T10:48:19;2.33;;;1.17;;
17193;SDS011;8713;48.388;10.928;2023-02-01T10:51:24;2.13;;;1.45;;
17193;SDS011;8713;48.388;10.928;2023-02-01T10:53:03;1.80;;;1.02;;
17193;SDS011;8713;48.388;10.928;2023-02-01T10:54:39;1.83;;;0.52;;
17193;SDS011;8713;48.388;10.928;2023-02-01T10:56:10;3.72;;;1.48;;
17193;SDS011;8713;48.388;10.928;2023-02-01T10:57:40;4.22;;;1.75;;
17193;SDS011;8713;48.388;10.928;2023-02-01T10:59:17;2.97;;;1.90;;
17193;SDS011;8713;48.388;10.928;2023-02-01T11:02:34;5.13;;;1.08;;
17193;SDS011;8713;48.388;10.928;2023-02-01T11:04:11;1.35;;;1.17;;
17193;SDS011;8713;48.388;10.928;2023-02-01T11:05:46;1.80;;;1.10;;
17193;SDS011;8713;48.388;10.928;2023-02-01T11:07:17;2.25;;;1.25;;
17193;SDS011;8713;48.388;10.928;2023-02-01T11:08:55;4.32;;;1.48;;
17193;SDS011;8713;48.388;10.928;2023-02-01T11:10:39;4.82;;;1.30;;
17193;SDS011;8713;48.388;10.928;2023-02-01T11:14:13;3.50;;;1.48;;
17193;SDS011;8713;48.388;10.928;2023-02-01T11:15:46;2.17;;;0.90;;
17193;SDS011;8713;48.388;10.928;2023-02-01T11:17:26;3.47;;;1.55;;
17193;SDS011;8713;48.388;10.928;2023-02-01T11:19:03;4.13;;;1.33;;
17193;SDS011;8713;48.388;10.928;2023-02-01T11:22:09;1.50;;;0.47;;
17193;SDS011;8713;48.388;10.928;2023-02-01T11:23:41;0.90;;;0.85;;
17193;SDS011;8713;48.388;10.928;2023-02-01T11:25:14;2.25;;;1.40;;
17193;SDS011;8713;48.388;10.928;2023-02-01T11:26:45;0.88;;;0.52;;
17193;SDS011;8713;48.388;10.928;2023-02-01T11:28:15;2.40;;;1.58;;
17193;SDS011;8713;48.388;10.928;2023-02-01T11:29:46;4.65;;;1.80;;
17193;SDS011;8713;48.388;10.928;2023-02-01T11:31:19;2.47;;;1.55;;
17193;SDS011;8713;48.388;10.928;2023-02-01T11:32:50;0.68;;;0.57;;
17193;SDS011;8713;48.388;10.928;2023-02-01T11:34:21;4.47;;;1.83;;
17193;SDS011;8713;48.388;10.928;2023-02-01T11:35:55;1.17;;;0.85;;
17193;SDS011;8713;48.388;10.928;2023-02-01T11:37:28;1.63;;;1.02;;
17193;SDS011;8713;48.388;10.928;2023-02-01T11:39:08;2.30;;;1.45;;
17193;SDS011;8713;48.388;10.928;2023-02-01T11:40:41;3.03;;;1.17;;
17193;SDS011;8713;48.388;10.928;2023-02-01T11:42:15;2.28;;;1.40;;
17193;SDS011;8713;48.388;10.928;2023-02-01T11:43:59;3.55;;;1.70;;
17193;SDS011;8713;48.388;10.928;2023-02-01T11:45:30;3.13;;;1.58;;
17193;SDS011;8713;48.388;10.928;2023-02-01T11:47:23;3.45;;;1.85;;
17193;SDS011;8713;48.388;10.928;2023-02-01T11:49:12;1.08;;;0.70;;
17193;SDS011;8713;48.388;10.928;2023-02-01T11:52:45;4.53;;;2.05;;
17193;SDS011;8713;48.388;10.928;2023-02-01T11:54:39;0.10;;;0.10;;
17193;SDS011;8713;48.388;10.928;2023-02-01T11:56:25;0.10;;;0.10;;
17193;SDS011;8713;48.388;10.928;2023-02-01T12:04:34;0.20;;;0.20;;
17193;SDS011;8713;48.388;10.928;2023-02-01T12:10:40;0.15;;;0.15;;
17193;SDS011;8713;48.388;10.928;2023-02-01T12:14:30;0.10;;;0.10;;
17193;SDS011;8713;48.388;10.928;2023-02-01T12:20:40;0.00;;;0.00;;
17193;SDS011;8713;48.388;10.928;2023-02-01T12:24:52;0.10;;;0.10;;
17193;SDS011;8713;48.388;10.928;2023-02-01T12:26:38;0.00;;;0.00;;
17193;SDS011;8713;48.388;10.928;2023-02-01T12:29:04;0.10;;;0.10;;
17193;SDS011;8713;48.388;10.928;2023-02-01T12:36:24;0.10;;;0.10;;
17193;SDS011;8713;48.388;10.928;2023-02-01T12:38:11;0.17;;;0.17;;
17193;SDS011;8713;48.388;10.928;2023-02-01T12:44:07;6.50;;;0.63;;
17193;SDS011;8713;48.388;10.928;2023-02-01T12:45:58;0.10;;;0.10;;
17193;SDS011;8713;48.388;10.928;2023-02-01T12:47:33;0.47;;;0.47;;
17193;SDS011;8713;48.388;10.928;2023-02-01T12:49:20;0.10;;;0.10;;
17193;SDS011;8713;48.388;10.928;2023-02-01T12:50:56;0.30;;;0.30;;
17193;SDS011;8713;48.388;10.928;2023-02-01T12:52:50;0.10;;;0.10;;
17193;SDS011;8713;48.388;10.928;2023-02-01T12:54:23;0.47;;;0.47;;
17193;SDS011;8713;48.388;10.928;2023-02-01T12:56:05;0.10;;;0.10;;
17193;SDS011;8713;48.388;10.928;2023-02-01T12:57:40;0.10;;;0.10;;
17193;SDS011;8713;48.388;10.928;2023-02-01T13:01:02;0.10;;;0.10;;
17193;SDS011;8713;48.388;10.928;2023-02-01T13:06:20;0.00;;;0.00;;
17193;SDS011;8713;48.388;10.928;2023-02-01T13:08:00;0.10;;;0.10;;
17193;SDS011;8713;48.388;10.928;2023-02-01T13:11:45;0.20;;;0.20;;
17193;SDS011;8713;48.388;10.928;2023-02-01T13:14:56;0.10;;;0.10;;
17193;SDS011;8713;48.388;10.928;2023-02-01T13:16:40;0.00;;;0.00;;
17193;SDS011;8713;48.388;10.928;2023-02-01T13:18:15;0.10;;;0.10;;
17193;SDS011;8713;48.388;10.928;2023-02-01T13:19:49;0.10;;;0.10;;
17193;SDS011;8713;48.388;10.928;2023-02-01T13:21:31;0.10;;;0.10;;
17193;SDS011;8713;48.388;10.928;2023-02-01T13:23:05;0.10;;;0.10;;
17193;SDS011;8713;48.388;10.928;2023-02-01T13:24:45;0.10;;;0.10;;
17193;SDS011;8713;48.388;10.928;2023-02-01T13:26:19;0.10;;;0.10;;
17193;SDS011;8713;48.388;10.928;2023-02-01T13:27:49;0.10;;;0.10;;
17193;SDS011;8713;48.388;10.928;2023-02-01T13:29:18;0.10;;;0.10;;
17193;SDS011;8713;48.388;10.928;2023-02-01T13:37:05;0.03;;;0.03;;
17193;SDS011;8713;48.388;10.928;2023-02-01T13:41:24;0.10;;;0.10;;
17193;SDS011;8713;48.388;10.928;2023-02-01T13:43:02;2.20;;;0.47;;
17193;SDS011;8713;48.388;10.928;2023-02-01T13:44:40;0.00;;;0.00;;
17193;SDS011;8713;48.388;10.928;2023-02-01T13:46:40;0.10;;;0.10;;
17193;SDS011;8713;48.388;10.928;2023-02-01T13:48:17;0.10;;;0.10;;
17193;SDS011;8713;48.388;10.928;2023-02-01T13:50:13;0.00;;;0.00;;
17193;SDS011;8713;48.388;10.928;2023-02-01T13:51:56;0.10;;;0.10;;
17193;SDS011;8713;48.388;10.928;2023-02-01T13:53:28;0.10;;;0.10;;
17193;SDS011;8713;48.388;10.928;2023-02-01T13:56:49;0.17;;;0.17;;
17193;SDS011;8713;48.388;10.928;2023-02-01T13:58:19;0.28;;;0.28;;
17193;SDS011;8713;48.388;10.928;2023-02-01T13:59:52;0.10;;;0.10;;
17193;SDS011;8713;48.388;10.928;2023-02-01T14:09:35;0.10;;;0.10;;
17193;SDS011;8713;48.388;10.928;2023-02-01T14:11:08;0.08;;;0.08;;
17193;SDS011;8713;48.388;10.928;2023-02-01T14:13:30;0.10;;;0.10;;
17193;SDS011;8713;48.388;10.928;2023-02-01T14:15:43;0.10;;;0.10;;
17193;SDS011;8713;48.388;10.928;2023-02-01T14:25:23;0.45;;;0.30;;
17193;SDS011;8713;48.388;10.928;2023-02-01T14:26:53;0.10;;;0.10;;
17193;SDS011;8713;48.388;10.928;2023-02-01T14:28:28;0.30;;;0.30;;
17193;SDS011;8713;48.388;10.928;2023-02-01T14:29:59;0.43;;;0.43;;
17193;SDS011;8713;48.388;10.928;2023-02-01T14:33:18;0.00;;;0.00;;
17193;SDS011;8713;48.388;10.928;2023-02-01T14:34:54;0.10;;;0.10;;
17193;SDS011;8713;48.388;10.928;2023-02-01T14:36:38;0.10;;;0.10;;
17193;SDS011;8713;48.388;10.928;2023-02-01T14:38:18;0.00;;;0.00;;
17193;SDS011;8713;48.388;10.928;2023-02-01T14:39:52;0.10;;;0.10;;
17193;SDS011;8713;48.388;10.928;2023-02-01T14:41:29;0.10;;;0.10;;
17193;SDS011;8713;48.388;10.928;2023-02-01T14:43:01;0.10;;;0.10;;
17193;SDS011;8713;48.388;10.928;2023-02-01T14:44:32;0.10;;;0.10;;
17193;SDS011;8713;48.388;10.928;2023-02-01T14:46:03;0.10;;;0.10;;
17193;SDS011;8713;48.388;10.928;2023-02-01T14:47:33;0.10;;;0.10;;
17193;SDS011;8713;48.388;10.928;2023-02-01T14:49:03;0.30;;;0.30;;
17193;SDS011;8713;48.388;10.928;2023-02-01T14:52:04;0.10;;;0.10;;
17193;SDS011;8713;48.388;10.928;2023-02-01T14:53:43;0.10;;;0.10;;
17193;SDS011;8713;48.388;10.928;2023-02-01T14:56:54;0.10;;;0.10;;
17193;SDS011;8713;48.388;10.928;2023-02-01T14:58:40;0.63;;;0.63;;
17193;SDS011;8713;48.388;10.928;2023-02-01T15:00:30;0.17;;;0.17;;
17193;SDS011;8713;48.388;10.928;2023-02-01T15:02:00;0.10;;;0.10;;
17193;SDS011;8713;48.388;10.928;2023-02-01T15:05:20;0.40;;;0.40;;
17193;SDS011;8713;48.388;10.928;2023-02-01T15:07:07;0.13;;;0.13;;
17193;SDS011;8713;48.388;10.928;2023-02-01T15:08:40;0.10;;;0.10;;
17193;SDS011;8713;48.388;10.928;2023-02-01T15:10:10;0.10;;;0.10;;
17193;SDS011;8713;48.388;10.928;2023-02-01T15:13:47;0.30;;;0.30;;
17193;SDS011;8713;48.388;10.928;2023-02-01T15:15:23;0.13;;;0.13;;
17193;SDS011;8713;48.388;10.928;2023-02-01T15:16:54;0.52;;;0.50;;
17193;SDS011;8713;48.388;10.928;2023-02-01T15:18:23;0.13;;;0.13;;
17193;SDS011;8713;48.388;10.928;2023-02-01T15:20:00;0.10;;;0.10;;
17193;SDS011;8713;48.388;10.928;2023-02-01T15:21:45;0.10;;;0.10;;
17193;SDS011;8713;48.388;10.928;2023-02-01T15:23:18;0.30;;;0.30;;
17193;SDS011;8713;48.388;10.928;2023-02-01T15:24:54;0.50;;;0.50;;
17193;SDS011;8713;48.388;10.928;2023-02-01T15:26:29;0.10;;;0.10;;
17193;SDS011;8713;48.388;10.928;2023-02-01T15:28:01;0.10;;;0.10;;
17193;SDS011;8713;48.388;10.928;2023-02-01T15:29:31;0.10;;;0.10;;
17193;SDS011;8713;48.388;10.928;2023-02-01T15:31:03;0.10;;;0.10;;
17193;SDS011;8713;48.388;10.928;2023-02-01T15:32:36;0.75;;;0.75;;
17193;SDS011;8713;48.388;10.928;2023-02-01T15:34:07;0.35;;;0.35;;
17193;SDS011;8713;48.388;10.928;2023-02-01T15:35:39;0.90;;;0.50;;
17193;SDS011;8713;48.388;10.928;2023-02-01T15:37:15;2.25;;;0.93;;
17193;SDS011;8713;48.388;10.928;2023-02-01T15:38:45;0.40;;;0.40;;
17193;SDS011;8713;48.388;10.928;2023-02-01T15:40:19;0.10;;;0.10;;
17193;SDS011;8713;48.388;10.928;2023-02-01T15:41:52;0.22;;;0.22;;
17193;SDS011;8713;48.388;10.928;2023-02-01T15:45:28;0.38;;;0.38;;
17193;SDS011;8713;48.388;10.928;2023-02-01T15:46:59;0.50;;;0.50;;
17193;SDS011;8713;48.388;10.928;2023-02-01T15:48:44;0.70;;;0.70;;
17193;SDS011;8713;48.388;10.928;2023-02-01T15:50:22;0.10;;;0.10;;
17193;SDS011;8713;48.388;10.928;2023-02-01T15:51:53;0.85;;;0.55;;
17193;SDS011;8713;48.388;10.928;2023-02-01T15:53:24;0.30;;;0.30;;
17193;SDS011;8713;48.388;10.928;2023-02-01T15:54:59;0.35;;;0.35;;
17193;SDS011;8713;48.388;10.928;2023-02-01T15:56:38;0.25;;;0.25;;
17193;SDS011;8713;48.388;10.928;2023-02-01T15:58:15;0.25;;;0.25;;
17193;SDS011;8713;48.388;10.928;2023-02-01T15:59:50;0.47;;;0.38;;
17193;SDS011;8713;48.388;10.928;2023-02-01T16:01:23;0.95;;;0.63;;
17193;SDS011;8713;48.388;10.928;2023-02-01T16:02:55;0.95;;;0.95;;
17193;SDS011;8713;48.388;10.928;2023-02-01T16:04:27;0.30;;;0.30;;
17193;SDS011;8713;48.388;10.928;2023-02-01T16:05:59;0.57;;;0.52;;
17193;SDS011;8713;48.388;10.928;2023-02-01T16:07:31;0.20;;;0.20;;
17193;SDS011;8713;48.388;10.928;2023-02-01T16:09:09;0.65;;;0.65;;
17193;SDS011;8713;48.388;10.928;2023-02-01T16:10:43;1.83;;;1.15;;
17193;SDS011;8713;48.388;10.928;2023-02-01T16:14:14;0.47;;;0.47;;
17193;SDS011;8713;48.388;10.928;2023-02-01T16:15:44;0.10;;;0.10;;
17193;SDS011;8713;48.388;10.928;2023-02-01T16:17:13;0.10;;;0.10;;
17193;SDS011;8713;48.388;10.928;2023-02-01T16:18:43;0.52;;;0.52;;
17193;SDS011;8713;48.388;10.928;2023-02-01T16:20:13;0.82;;;0.68;;
17193;SDS011;8713;48.388;10.928;2023-02-01T16:21:43;0.30;;;0.30;;
17193;SDS011;8713;48.388;10.928;2023-02-01T16:23:13;5.63;;;0.35;;
17193;SDS011;8713;48.388;10.928;2023-02-01T16:24:43;0.15;;;0.15;;
17193;SDS011;8713;48.388;10.928;2023-02-01T16:26:12;2.20;;;1.15;;
17193;SDS011;8713;48.388;10.928;2023-02-01T16:27:42;2.47;;;1.50;;
17193;SDS011;8713;48.388;10.928;2023-02-01T16:29:12;0.47;;;0.47;;
17193;SDS011;8713;48.388;10.928;2023-02-01T16:30:42;0.40;;;0.40;;
17193;SDS011;8713;48.388;10.928;2023-02-01T16:32:16;2.95;;;0.60;;
17193;SDS011;8713;48.388;10.928;2023-02-01T16:33:49;0.15;;;0.15;;
17193;SDS011;8713;48.388;10.928;2023-02-01T16:35:21;1.75;;;0.30;;
17193;SDS011;8713;48.388;10.928;2023-02-01T16:37:04;0.73;;;0.73;;
17193;SDS011;8713;48.388;10.928;2023-02-01T16:38:34;0.20;;;0.20;;
17193;SDS011;8713;48.388;10.928;2023-02-01T16:40:03;0.17;;;0.17;;
17193;SDS011;8713;48.388;10.928;2023-02-01T16:41:33;1.27;;;0.95;;
17193;SDS011;8713;48.388;10.928;2023-02-01T16:43:13;0.90;;;0.90;;
17193;SDS011;8713;48.388;10.928;2023-02-01T16:44:53;0.15;;;0.15;;
17193;SDS011;8713;48.388;10.928;2023-02-01T16:46:24;0.52;;;0.50;;
17193;SDS011;8713;48.388;10.928;2023-02-01T16:47:55;0.57;;;0.47;;
17193;SDS011;8713;48.388;10.928;2023-02-01T16:49:26;0.55;;;0.55;;
17193;SDS011;8713;48.388;10.928;2023-02-01T16:50:57;0.10;;;0.10;;
17193;SDS011;8713;48.388;10.928;2023-02-01T16:52:29;0.90;;;0.90;;
17193;SDS011;8713;48.388;10.928;2023-02-01T16:53:59;0.45;;;0.43;;
17193;SDS011;8713;48.388;10.928;2023-02-01T16:55:29;1.60;;;1.13;;
17193;SDS011;8713;48.388;10.928;2023-02-01T16:56:59;0.47;;;0.47;;
17193;SDS011;8713;48.388;10.928;2023-02-01T16:58:28;6.60;;;0.43;;
17193;SDS011;8713;48.388;10.928;2023-02-01T16:59:58;3.17;;;0.82;;
17193;SDS011;8713;48.388;10.928;2023-02-01T17:01:31;1.00;;;0.65;;
17193;SDS011;8713;48.388;10.928;2023-02-01T17:03:00;0.22;;;0.15;;
17193;SDS011;8713;48.388;10.928;2023-02-01T17:04:29;0.88;;;0.80;;
17193;SDS011;8713;48.388;10.928;2023-02-01T17:05:59;8.00;;;2.00;;
17193;SDS011;8713;48.388;10.928;2023-02-01T17:07:29;6.55;;;2.33;;
17193;SDS011;8713;48.388;10.928;2023-02-01T17:08:58;6.50;;;2.30;;
17193;SDS011;8713;48.388;10.928;2023-02-01T17:10:28;5.25;;;2.20;;
17193;SDS011;8713;48.388;10.928;2023-02-01T17:11:57;5.70;;;2.08;;
17193;SDS011;8713;48.388;10.928;2023-02-01T17:13:27;7.18;;;2.20;;
17193;SDS011;8713;48.388;10.928;2023-02-01T17:14:57;5.63;;;2.10;;
17193;SDS011;8713;48.388;10.928;2023-02-01T17:16:28;6.95;;;2.42;;
17193;SDS011;8713;48.388;10.928;2023-02-01T17:17:59;8.60;;;2.88;;
17193;SDS011;8713;48.388;10.928;2023-02-01T17:19:30;4.22;;;2.10;;
17193;SDS011;8713;48.388;10.928;2023-02-01T17:21:02;8.88;;;2.58;;
17193;SDS011;8713;48.388;10.928;2023-02-01T17:22:33;3.83;;;1.85;;
17193;SDS011;8713;48.388;10.928;2023-02-01T17:24:02;5.00;;;1.88;;
17193;SDS011;8713;48.388;10.928;2023-02-01T17:25:31;8.25;;;2.33;;
17193;SDS011;8713;48.388;10.928;2023-02-01T17:27:01;6.25;;;2.53;;
17193;SDS011;8713;48.388;10.928;2023-02-01T17:28:32;6.32;;;2.22;;
17193;SDS011;8713;48.388;10.928;2023-02-01T17:30:02;6.57;;;2.50;;
17193;SDS011;8713;48.388;10.928;2023-02-01T17:31:33;4.05;;;1.90;;
17193;SDS011;8713;48.388;10.928;2023-02-01T17:34:50;7.78;;;2.58;;
17193;SDS011;8713;48.388;10.928;2023-02-01T17:36:19;4.55;;;2.00;;
17193;SDS011;8713;48.388;10.928;2023-02-01T17:37:49;5.13;;;2.00;;
17193;SDS011;8713;48.388;10.928;2023-02-01T17:39:19;9.60;;;2.63;;
17193;SDS011;8713;48.388;10.928;2023-02-01T17:41:09;8.55;;;1.92;;
17193;SDS011;8713;48.388;10.928;2023-02-01T17:42:40;5.72;;;2.60;;
17193;SDS011;8713;48.388;10.928;2023-02-01T17:44:10;7.05;;;2.22;;
17193;SDS011;8713;48.388;10.928;2023-02-01T17:45:49;5.40;;;1.92;;
17193;SDS011;8713;48.388;10.928;2023-02-01T17:47:25;3.33;;;1.77;;
17193;SDS011;8713;48.388;10.928;2023-02-01T17:48:54;5.00;;;2.30;;
17193;SDS011;8713;48.388;10.928;2023-02-01T17:50:25;5.30;;;2.05;;
17193;SDS011;8713;48.388;10.928;2023-02-01T17:51:56;8.45;;;2.83;;
17193;SDS011;8713;48.388;10.928;2023-02-01T17:53:26;6.10;;;2.22;;
17193;SDS011;8713;48.388;10.928;2023-02-01T17:54:57;4.25;;;1.83;;
17193;SDS011;8713;48.388;10.928;2023-02-01T17:56:27;6.47;;;2.33;;
17193;SDS011;8713;48.388;10.928;2023-02-01T17:57:57;9.48;;;2.05;;
17193;SDS011;8713;48.388;10.928;2023-02-01T17:59:26;7.75;;;1.98;;
17193;SDS011;8713;48.388;10.928;2023-02-01T18:00:56;3.70;;;1.60;;
17193;SDS011;8713;48.388;10.928;2023-02-01T18:02:25;5.30;;;1.92;;
17193;SDS011;8713;48.388;10.928;2023-02-01T18:03:55;4.45;;;1.85;;
17193;SDS011;8713;48.388;10.928;2023-02-01T18:07:11;8.52;;;2.67;;
17193;SDS011;8713;48.388;10.928;2023-02-01T18:08:40;5.82;;;2.25;;
17193;SDS011;8713;48.388;10.928;2023-02-01T18:10:10;7.28;;;2.28;;
17193;SDS011;8713;48.388;10.928;2023-02-01T18:11:40;9.30;;;2.45;;
17193;SDS011;8713;48.388;10.928;2023-02-01T18:13:10;8.40;;;2.85;;
17193;SDS011;8713;48.388;10.928;2023-02-01T18:14:40;5.03;;;1.70;;
17193;SDS011;8713;48.388;10.928;2023-02-01T18:16:24;7.50;;;2.05;;
17193;SDS011;8713;48.388;10.928;2023-02-01T18:17:58;6.93;;;2.40;;
17193;SDS011;8713;48.388;10.928;2023-02-01T18:19:27;7.15;;;2.28;;
17193;SDS011;8713;48.388;10.928;2023-02-01T18:20:57;5.07;;;1.77;;
17193;SDS011;8713;48.388;10.928;2023-02-01T18:22:27;7.18;;;2.45;;
17193;SDS011;8713;48.388;10.928;2023-02-01T18:23:56;5.00;;;1.60;;